Time;durP1;ratioP1;P1;durP2;ratioP2;P2;SDS_P1;SDS_P2;PMS_P1;PMS_P2;Temp;Humidity;BMP_temperature;BMP_pressure;BME280_temperature;BME280_humidity;BME280_pressure;Samples;Min_cycle;Max_cycle;Signal;HPM_P1;HPM_P2
2023/10/23 00:02:24;;;;;;;2.07;0.80;;;15.10;99.90;;;;;;5090812;28;20590;-77
2023/10/23 00:04:50;;;;;;;1.80;1.10;;;15.10;99.90;;;;;;5073270;28;20602;-76
2023/10/23 00:07:16;;;;;;;1.63;0.90;;;15.10;99.90;;;;;;5090779;28;20649;-76
2023/10/23 00:09:42;;;;;;;2.73;1.10;;;15.10;99.90;;;;;;5073102;28;20198;-76
2023/10/23 00:12:08;;;;;;;1.77;0.90;;;15.10;99.90;;;;;;5072720;28;21151;-76
2023/10/23 00:14:35;;;;;;;1.63;0.90;;;15.10;99.90;;;;;;5056132;28;20605;-76
2023/10/23 00:17:00;;;;;;;2.47;1.00;;;15.00;99.90;;;;;;5067951;28;20976;-76
2023/10/23 00:19:27;;;;;;;1.87;0.90;;;15.00;99.90;;;;;;5052696;28;20587;-77
2023/10/23 00:21:53;;;;;;;2.03;1.20;;;15.00;99.90;;;;;;5066400;28;20224;-76
2023/10/23 00:24:19;;;;;;;2.27;0.90;;;15.00;99.90;;;;;;5090910;28;20578;-76
2023/10/23 00:26:45;;;;;;;1.70;1.17;;;15.00;99.90;;;;;;5091123;28;20996;-76
2023/10/23 00:29:10;;;;;;;2.40;1.03;;;15.00;99.90;;;;;;5072675;28;20634;-77
2023/10/23 00:31:36;;;;;;;1.70;0.90;;;15.00;99.90;;;;;;5096796;28;20195;-76
2023/10/23 00:34:02;;;;;;;2.30;1.17;;;15.00;99.90;;;;;;5094812;28;20645;-76
2023/10/23 00:36:27;;;;;;;2.00;1.00;;;15.00;99.90;;;;;;5043343;28;20196;-76
2023/10/23 00:38:53;;;;;;;1.70;0.93;;;15.00;99.90;;;;;;5076653;28;20163;-76
2023/10/23 00:41:19;;;;;;;4.20;1.30;;;15.00;99.90;;;;;;5076554;28;20274;-76
2023/10/23 00:43:44;;;;;;;1.63;0.90;;;15.00;99.90;;;;;;5076461;28;20180;-76
2023/10/23 00:46:14;;;;;;;1.97;1.03;;;15.00;99.90;;;;;;5060516;28;20291;-76
2023/10/23 00:48:40;;;;;;;1.83;1.00;;;15.00;99.90;;;;;;5068206;28;20290;-76
2023/10/23 00:51:07;;;;;;;2.67;1.20;;;14.90;99.90;;;;;;5094724;28;20665;-76
2023/10/23 00:53:36;;;;;;;2.20;1.00;;;14.90;99.90;;;;;;5094195;28;21205;-77
2023/10/23 00:56:07;;;;;;;1.70;0.90;;;14.90;99.90;;;;;;5094500;28;20601;-76
2023/10/23 00:58:40;;;;;;;3.37;1.00;;;14.90;99.90;;;;;;5059625;28;20586;-76
2023/10/23 01:01:10;;;;;;;2.90;0.97;;;14.90;99.90;;;;;;5076514;28;20583;-76
2023/10/23 01:03:35;;;;;;;4.23;1.17;;;14.90;99.90;;;;;;5075888;28;20619;-76
2023/10/23 01:06:01;;;;;;;3.30;0.97;;;14.80;99.90;;;;;;5076283;28;20613;-76
2023/10/23 01:08:27;;;;;;;2.40;0.90;;;14.80;99.90;;;;;;5073108;28;20216;-76
2023/10/23 01:11:05;;;;;;;2.30;1.30;;;14.80;99.90;;;;;;5078535;28;20976;-76
2023/10/23 01:13:31;;;;;;;1.90;0.90;;;14.70;99.90;;;;;;5056773;28;20635;-76
2023/10/23 01:15:57;;;;;;;1.83;1.00;;;14.60;99.90;;;;;;5036732;28;20192;-76
2023/10/23 01:18:22;;;;;;;2.20;1.00;;;14.60;99.90;;;;;;5075739;28;20254;-76
2023/10/23 01:20:48;;;;;;;2.50;0.87;;;14.40;99.90;;;;;;5059269;28;20629;-76
2023/10/23 01:23:14;;;;;;;1.93;0.80;;;14.40;99.90;;;;;;5073414;28;20595;-76
2023/10/23 01:25:41;;;;;;;1.80;1.17;;;14.30;99.90;;;;;;5069048;28;20978;-76
2023/10/23 01:28:07;;;;;;;3.17;1.03;;;14.20;99.90;;;;;;5055600;28;20646;-76
2023/10/23 01:30:33;;;;;;;2.17;1.20;;;14.10;99.90;;;;;;5074492;28;20176;-76
2023/10/23 01:32:59;;;;;;;2.13;0.90;;;14.00;99.90;;;;;;5058839;28;20589;-76
2023/10/23 01:35:24;;;;;;;2.73;1.33;;;13.90;99.90;;;;;;5058701;28;20589;-76
2023/10/23 01:37:51;;;;;;;2.13;1.10;;;13.90;99.90;;;;;;5075628;28;20190;-76
2023/10/23 01:40:18;;;;;;;3.50;1.40;;;13.80;99.90;;;;;;5075785;28;20578;-76
2023/10/23 01:42:46;;;;;;;3.00;1.20;;;13.70;99.90;;;;;;5075186;28;21236;-76
2023/10/23 01:45:12;;;;;;;3.77;1.30;;;13.60;99.90;;;;;;5060840;28;20601;-76
2023/10/23 01:47:38;;;;;;;4.97;1.73;;;13.60;99.90;;;;;;5075501;28;20664;-76
2023/10/23 01:50:04;;;;;;;2.87;1.30;;;13.50;99.90;;;;;;5075573;28;20626;-76
2023/10/23 01:52:29;;;;;;;3.23;1.10;;;13.40;99.90;;;;;;5075035;28;20176;-76
2023/10/23 01:54:55;;;;;;;2.37;1.00;;;13.40;99.90;;;;;;5058757;28;20658;-77
2023/10/23 01:57:21;;;;;;;4.37;1.10;;;13.30;99.90;;;;;;5058499;28;20202;-76
2023/10/23 01:59:46;;;;;;;3.57;0.90;;;13.30;99.90;;;;;;5058507;28;20644;-76
2023/10/23 02:02:12;;;;;;;3.93;1.13;;;13.20;99.90;;;;;;5058453;28;20194;-76
2023/10/23 02:04:39;;;;;;;2.88;1.00;;;13.20;99.90;;;;;;5083695;28;20196;-76
2023/10/23 02:07:05;;;;;;;3.50;1.13;;;13.20;99.90;;;;;;5070532;28;20293;-76
2023/10/23 02:09:32;;;;;;;2.87;1.17;;;13.10;99.90;;;;;;5065535;28;20214;-75
2023/10/23 02:11:58;;;;;;;1.90;0.90;;;13.10;99.90;;;;;;5068620;28;20191;-76
2023/10/23 02:14:24;;;;;;;1.50;1.00;;;13.10;99.90;;;;;;5092988;28;20578;-76
2023/10/23 02:16:49;;;;;;;2.90;1.13;;;13.00;99.90;;;;;;5058299;28;20775;-76
2023/10/23 02:19:15;;;;;;;2.10;1.30;;;13.00;99.90;;;;;;5050124;28;20258;-76
2023/10/23 02:21:49;;;;;;;2.27;1.20;;;13.00;99.90;;;;;;5096727;28;20175;-76
2023/10/23 02:24:16;;;;;;;3.20;0.80;;;13.00;99.90;;;;;;5075138;28;21201;-76
2023/10/23 02:26:41;;;;;;;3.95;1.20;;;12.90;99.90;;;;;;5071547;28;20662;-76
2023/10/23 02:29:07;;;;;;;2.70;1.60;;;12.90;99.90;;;;;;5044853;28;20230;-76
2023/10/23 02:31:33;;;;;;;1.63;1.20;;;12.80;99.90;;;;;;5074620;28;20176;-76
2023/10/23 02:33:58;;;;;;;2.10;1.07;;;12.80;99.90;;;;;;5044661;28;20199;-76
2023/10/23 02:36:26;;;;;;;3.10;1.48;;;12.80;99.90;;;;;;5063426;28;20196;-76
2023/10/23 02:38:51;;;;;;;4.78;2.03;;;12.70;99.90;;;;;;5092791;28;20183;-76
2023/10/23 02:41:17;;;;;;;2.87;1.47;;;12.70;99.90;;;;;;5066614;28;20180;-76
2023/10/23 02:43:43;;;;;;;3.30;1.20;;;12.70;99.90;;;;;;5089059;28;20589;-74
2023/10/23 02:46:09;;;;;;;5.67;1.30;;;12.60;99.90;;;;;;5069240;28;20294;-74
2023/10/23 02:48:36;;;;;;;1.98;1.60;;;12.60;99.90;;;;;;5057509;28;20207;-74
2023/10/23 02:51:02;;;;;;;3.45;1.23;;;12.60;99.90;;;;;;5068779;28;20279;-74
2023/10/23 02:53:29;;;;;;;2.63;1.43;;;12.50;99.90;;;;;;5054504;28;20251;-74
2023/10/23 02:55:55;;;;;;;2.55;1.58;;;12.50;99.90;;;;;;5048926;28;20602;-74
2023/10/23 02:58:21;;;;;;;2.37;1.40;;;12.40;99.90;;;;;;5059934;28;20183;-74
2023/10/23 03:00:47;;;;;;;2.57;1.47;;;12.40;99.90;;;;;;5067032;28;20180;-74
2023/10/23 03:03:12;;;;;;;2.63;1.40;;;12.40;99.90;;;;;;5061962;28;20183;-74
2023/10/23 03:05:40;;;;;;;1.60;1.10;;;12.40;99.90;;;;;;5057906;28;20653;-74
2023/10/23 03:08:05;;;;;;;2.73;1.20;;;12.40;99.90;;;;;;5083681;28;20336;-74
2023/10/23 03:10:32;;;;;;;1.70;1.23;;;12.30;99.90;;;;;;5040562;28;20584;-74
2023/10/23 03:12:58;;;;;;;2.03;1.30;;;12.30;99.90;;;;;;5073762;28;20183;-74
2023/10/23 03:15:24;;;;;;;2.10;1.40;;;12.30;99.90;;;;;;5065425;28;20184;-74
2023/10/23 03:17:50;;;;;;;5.00;1.80;;;12.30;99.90;;;;;;5057169;28;20585;-74
2023/10/23 03:20:16;;;;;;;3.33;1.60;;;12.30;99.90;;;;;;5073647;28;20593;-74
2023/10/23 03:22:42;;;;;;;3.30;1.60;;;12.20;99.90;;;;;;5073300;28;20566;-74
2023/10/23 03:25:09;;;;;;;3.07;1.63;;;12.30;99.90;;;;;;5059258;28;21160;-75
2023/10/23 03:27:35;;;;;;;2.85;1.65;;;12.20;99.90;;;;;;5038322;28;20282;-75
2023/10/23 03:30:01;;;;;;;5.85;1.85;;;12.30;99.90;;;;;;5073879;28;20183;-75
2023/10/23 03:32:27;;;;;;;3.43;2.03;;;12.30;99.90;;;;;;5073190;28;20183;-75
2023/10/23 03:34:53;;;;;;;4.93;1.90;;;12.30;99.90;;;;;;5056509;28;20578;-75
2023/10/23 03:37:20;;;;;;;6.15;2.72;;;12.30;99.90;;;;;;5029358;28;20196;-75
2023/10/23 03:39:45;;;;;;;2.47;1.33;;;12.30;99.90;;;;;;5055464;28;20803;-74
2023/10/23 03:42:11;;;;;;;4.00;1.90;;;12.30;99.90;;;;;;5056267;28;20641;-75
2023/10/23 03:44:40;;;;;;;2.88;1.90;;;12.30;99.90;;;;;;5091226;28;20282;-75
2023/10/23 03:47:10;;;;;;;5.07;1.85;;;12.30;99.90;;;;;;5056596;28;20308;-74
2023/10/23 03:49:36;;;;;;;4.45;2.05;;;12.20;99.90;;;;;;5091139;28;20176;-74
2023/10/23 03:52:02;;;;;;;3.83;2.30;;;12.20;99.90;;;;;;5072929;28;20172;-74
2023/10/23 03:54:28;;;;;;;7.35;2.42;;;12.20;99.90;;;;;;5090750;28;21054;-74
2023/10/23 03:56:53;;;;;;;3.20;2.30;;;12.20;99.90;;;;;;5062442;28;20202;-74
2023/10/23 03:59:19;;;;;;;4.00;2.20;;;12.20;99.90;;;;;;5091361;28;20195;-74
2023/10/23 04:01:44;;;;;;;8.50;2.50;;;12.20;99.90;;;;;;5073029;28;20168;-74
2023/10/23 04:04:10;;;;;;;2.83;1.70;;;12.20;99.90;;;;;;5076355;28;20670;-74
2023/10/23 04:06:39;;;;;;;3.90;2.20;;;12.20;99.90;;;;;;5087853;28;20195;-74
2023/10/23 04:09:05;;;;;;;5.88;2.30;;;12.20;99.90;;;;;;5073028;28;20225;-74
2023/10/23 04:11:31;;;;;;;6.83;2.10;;;12.20;99.90;;;;;;5072903;28;20669;-75
2023/10/23 04:13:56;;;;;;;3.70;2.30;;;12.20;99.90;;;;;;5086642;28;20621;-74
2023/10/23 04:16:22;;;;;;;4.33;1.50;;;12.20;99.90;;;;;;5070806;28;20610;-74
2023/10/23 04:18:48;;;;;;;3.80;2.30;;;12.20;99.90;;;;;;5072315;28;20176;-74
2023/10/23 04:21:13;;;;;;;6.93;2.70;;;12.10;99.90;;;;;;5064658;28;20183;-74
2023/10/23 04:23:40;;;;;;;3.70;1.80;;;12.20;99.90;;;;;;5072286;28;20620;-74
2023/10/23 04:26:07;;;;;;;4.22;2.10;;;12.10;99.90;;;;;;5072801;28;20248;-74
2023/10/23 04:28:33;;;;;;;4.85;1.80;;;12.10;99.90;;;;;;5081980;28;20196;-74
2023/10/23 04:30:59;;;;;;;4.03;2.83;;;12.10;99.90;;;;;;5083560;28;20167;-75
2023/10/23 04:33:25;;;;;;;5.73;2.07;;;12.10;99.90;;;;;;5090450;28;20182;-74
2023/10/23 04:35:52;;;;;;;4.40;2.00;;;12.10;99.90;;;;;;5072303;28;21013;-74
2023/10/23 04:38:18;;;;;;;2.85;1.40;;;12.00;99.90;;;;;;5072891;28;20274;-74
2023/10/23 04:40:44;;;;;;;4.88;1.73;;;12.00;99.90;;;;;;5072877;28;20176;-74
2023/10/23 04:43:11;;;;;;;4.20;1.90;;;12.00;99.90;;;;;;5066853;28;20180;-74
2023/10/23 04:45:37;;;;;;;4.90;1.42;;;12.00;99.90;;;;;;5088008;28;20624;-74
2023/10/23 04:48:04;;;;;;;3.70;1.40;;;12.00;99.90;;;;;;5085977;28;20208;-74
2023/10/23 04:50:37;;;;;;;2.90;1.40;;;12.00;99.90;;;;;;5052830;28;20237;-74
2023/10/23 04:53:04;;;;;;;2.60;1.40;;;11.90;99.90;;;;;;5067581;28;20326;-74
2023/10/23 04:55:33;;;;;;;4.32;1.60;;;11.90;99.90;;;;;;5078770;28;20244;-74
2023/10/23 04:58:00;;;;;;;4.82;1.20;;;11.90;99.90;;;;;;5072520;28;20176;-75
2023/10/23 05:00:26;;;;;;;2.97;1.40;;;11.90;99.90;;;;;;5090679;28;20262;-75
2023/10/23 05:02:52;;;;;;;3.67;1.48;;;11.80;99.90;;;;;;5060659;28;20180;-75
2023/10/23 05:05:18;;;;;;;2.47;1.10;;;11.80;99.90;;;;;;5067240;28;20180;-75
2023/10/23 05:07:43;;;;;;;4.73;1.53;;;11.80;99.90;;;;;;5072429;28;20690;-75
2023/10/23 05:10:09;;;;;;;3.57;1.77;;;11.80;99.90;;;;;;5082242;28;20176;-75
2023/10/23 05:12:35;;;;;;;5.33;1.60;;;11.80;99.90;;;;;;5071912;28;20638;-75
2023/10/23 05:15:02;;;;;;;3.90;1.20;;;11.80;99.90;;;;;;5072277;28;20573;-75
2023/10/23 05:17:28;;;;;;;3.08;1.20;;;11.80;99.90;;;;;;5073133;28;20207;-75
2023/10/23 05:19:53;;;;;;;3.13;1.20;;;11.80;99.90;;;;;;5076052;28;20170;-75
2023/10/23 05:22:19;;;;;;;2.43;1.03;;;11.80;99.90;;;;;;5075598;28;20668;-75
2023/10/23 05:24:46;;;;;;;5.00;1.60;;;11.80;99.90;;;;;;5075659;28;20233;-75
2023/10/23 05:27:12;;;;;;;6.13;1.52;;;11.80;99.90;;;;;;5063220;28;20212;-75
2023/10/23 05:29:38;;;;;;;3.22;1.20;;;11.80;99.90;;;;;;5091549;28;20179;-75
2023/10/23 05:32:04;;;;;;;3.23;1.40;;;11.80;99.90;;;;;;5093665;28;20174;-75
2023/10/23 05:34:30;;;;;;;2.17;1.15;;;11.80;99.90;;;;;;5075575;28;20274;-75
2023/10/23 05:36:56;;;;;;;2.33;1.20;;;11.70;99.90;;;;;;5075633;28;20799;-74
2023/10/23 05:39:21;;;;;;;6.70;2.10;;;11.70;99.90;;;;;;5093881;28;20176;-75
2023/10/23 05:41:47;;;;;;;5.67;1.37;;;11.70;99.90;;;;;;5093401;28;20172;-75
2023/10/23 05:44:13;;;;;;;4.17;1.47;;;11.70;99.90;;;;;;5093605;28;20179;-75
2023/10/23 05:46:38;;;;;;;5.50;1.63;;;11.70;99.90;;;;;;5066971;28;20871;-75
2023/10/23 05:49:04;;;;;;;3.10;1.90;;;11.70;99.90;;;;;;5093634;28;20630;-75
2023/10/23 05:51:30;;;;;;;3.80;1.47;;;11.70;99.90;;;;;;5093634;28;20529;-75
2023/10/23 05:53:58;;;;;;;5.10;1.87;;;11.70;99.90;;;;;;5058206;28;20167;-75
2023/10/23 05:56:24;;;;;;;3.80;1.60;;;11.70;99.90;;;;;;5075225;28;20199;-75
2023/10/23 05:58:50;;;;;;;7.10;2.50;;;11.60;99.90;;;;;;5085173;28;20172;-75
2023/10/23 06:01:17;;;;;;;3.20;1.35;;;11.60;99.90;;;;;;5093423;28;20270;-75
2023/10/23 06:03:43;;;;;;;5.55;2.00;;;11.60;99.90;;;;;;5075160;28;20833;-75
2023/10/23 06:06:09;;;;;;;4.28;1.98;;;11.60;99.90;;;;;;5093344;28;20682;-75
2023/10/23 06:08:35;;;;;;;2.80;1.63;;;11.60;99.90;;;;;;5075069;28;20284;-75
2023/10/23 06:11:01;;;;;;;4.60;2.00;;;11.60;99.90;;;;;;5075060;28;21142;-75
2023/10/23 06:13:27;;;;;;;4.10;2.15;;;11.70;99.90;;;;;;5092828;28;20589;-74
2023/10/23 06:15:53;;;;;;;2.75;1.60;;;11.70;99.90;;;;;;5078696;28;20204;-76
2023/10/23 06:18:19;;;;;;;3.40;1.77;;;11.70;99.90;;;;;;5093075;28;20245;-75
2023/10/23 06:20:45;;;;;;;2.80;1.60;;;11.70;99.90;;;;;;5084658;28;20624;-76
2023/10/23 06:23:11;;;;;;;4.20;1.50;;;11.70;99.90;;;;;;5092720;28;20171;-75
2023/10/23 06:25:38;;;;;;;4.60;1.83;;;11.70;99.90;;;;;;5075257;28;20200;-74
2023/10/23 06:28:03;;;;;;;4.05;1.95;;;11.70;99.90;;;;;;5067039;28;20195;-75
2023/10/23 06:30:29;;;;;;;2.80;1.73;;;11.70;99.90;;;;;;5073790;28;20191;-75
2023/10/23 06:32:56;;;;;;;2.47;1.60;;;11.70;99.90;;;;;;5074506;28;20593;-75
2023/10/23 06:35:22;;;;;;;4.63;1.80;;;11.70;99.90;;;;;;5059505;28;20593;-74
2023/10/23 06:37:48;;;;;;;3.30;2.00;;;11.80;99.90;;;;;;5056332;28;20180;-74
2023/10/23 06:40:14;;;;;;;3.97;2.33;;;11.80;99.90;;;;;;5058165;28;20180;-74
2023/10/23 06:42:40;;;;;;;5.20;1.77;;;11.80;99.90;;;;;;5092442;28;20186;-74
2023/10/23 06:45:06;;;;;;;3.57;2.13;;;11.80;99.90;;;;;;5088426;28;20188;-74
2023/10/23 06:47:32;;;;;;;4.47;2.00;;;11.80;99.90;;;;;;5059824;28;20221;-74
2023/10/23 06:49:59;;;;;;;6.10;2.20;;;11.90;99.90;;;;;;5083947;28;20914;-73
2023/10/23 06:52:25;;;;;;;2.87;2.00;;;11.90;99.90;;;;;;5092634;28;20196;-75
2023/10/23 06:54:51;;;;;;;4.90;2.80;;;11.90;99.90;;;;;;5063961;28;20614;-74
2023/10/23 06:57:16;;;;;;;4.90;2.50;;;12.00;99.90;;;;;;5059727;28;20211;-75
2023/10/23 06:59:42;;;;;;;4.00;3.07;;;12.00;99.90;;;;;;5053962;28;20180;-75
2023/10/23 07:02:09;;;;;;;7.50;4.27;;;12.00;99.90;;;;;;5071757;28;20634;-74
2023/10/23 07:04:34;;;;;;;5.03;3.40;;;12.00;99.90;;;;;;5080023;28;20262;-74
2023/10/23 07:07:00;;;;;;;4.13;2.80;;;12.10;99.90;;;;;;5080251;28;20741;-74
2023/10/23 07:09:26;;;;;;;6.17;3.03;;;12.10;99.90;;;;;;5069054;28;20172;-75
2023/10/23 07:11:52;;;;;;;5.13;2.90;;;12.10;99.90;;;;;;5091845;28;21201;-74
2023/10/23 07:14:18;;;;;;;4.40;2.70;;;12.20;99.90;;;;;;5066592;28;20188;-75
2023/10/23 07:16:47;;;;;;;4.30;3.00;;;12.20;99.90;;;;;;5062202;28;20625;-74
2023/10/23 07:19:13;;;;;;;5.20;3.80;;;12.30;99.90;;;;;;5083320;28;20176;-75
2023/10/23 07:21:38;;;;;;;4.80;4.30;;;12.40;99.90;;;;;;5084589;28;20982;-76
2023/10/23 07:24:04;;;;;;;4.60;3.57;;;12.40;99.90;;;;;;5056989;28;20691;-76
2023/10/23 07:26:30;;;;;;;8.80;4.17;;;12.40;99.90;;;;;;5084449;28;20533;-75
2023/10/23 07:28:56;;;;;;;5.60;3.80;;;12.40;99.90;;;;;;5082169;28;20597;-76
2023/10/23 07:31:21;;;;;;;3.73;3.00;;;12.40;99.90;;;;;;5091782;28;20179;-75
2023/10/23 07:33:47;;;;;;;5.17;4.50;;;12.40;99.90;;;;;;5090422;28;20186;-76
2023/10/23 07:36:14;;;;;;;7.13;4.23;;;12.30;99.90;;;;;;5070051;28;20254;-76
2023/10/23 07:38:41;;;;;;;5.73;5.07;;;12.30;99.90;;;;;;5052079;28;20586;-76
2023/10/23 07:41:08;;;;;;;5.27;4.77;;;12.30;99.90;;;;;;5072050;28;20582;-74
2023/10/23 07:43:34;;;;;;;6.43;4.83;;;12.30;99.90;;;;;;5039566;28;20586;-74
2023/10/23 07:46:08;;;;;;;5.77;4.30;;;12.40;99.90;;;;;;5053784;28;20636;-74
2023/10/23 07:48:33;;;;;;;7.10;4.90;;;12.40;99.90;;;;;;5073958;28;20199;-74
2023/10/23 07:51:00;;;;;;;11.43;6.20;;;12.40;99.90;;;;;;5055518;28;20598;-73
2023/10/23 07:53:27;;;;;;;7.50;5.90;;;12.40;99.90;;;;;;5073446;28;20186;-75
2023/10/23 07:55:53;;;;;;;6.60;4.65;;;12.40;99.90;;;;;;5056590;28;20606;-74
2023/10/23 07:58:19;;;;;;;7.40;5.27;;;12.40;99.90;;;;;;5075457;28;20187;-75
2023/10/23 08:00:44;;;;;;;5.60;4.80;;;12.50;99.90;;;;;;5074758;28;20586;-75
2023/10/23 08:03:11;;;;;;;4.63;3.67;;;12.50;99.90;;;;;;5057789;28;20826;-76
2023/10/23 08:05:37;;;;;;;7.60;6.17;;;12.60;99.90;;;;;;5072137;28;20224;-76
2023/10/23 08:08:04;;;;;;;6.50;5.73;;;12.60;99.90;;;;;;5071549;28;20625;-75
2023/10/23 08:10:30;;;;;;;6.53;5.85;;;12.60;99.90;;;;;;5055598;28;20571;-74
2023/10/23 08:12:55;;;;;;;7.97;6.33;;;12.70;99.90;;;;;;5057593;28;20708;-75
2023/10/23 08:15:21;;;;;;;6.27;4.70;;;12.80;99.90;;;;;;5058384;28;20653;-75
2023/10/23 08:17:47;;;;;;;7.93;6.07;;;12.80;99.90;;;;;;5075110;28;20178;-75
2023/10/23 08:20:13;;;;;;;6.40;5.80;;;12.90;99.90;;;;;;5075658;28;20240;-75
2023/10/23 08:22:38;;;;;;;5.43;4.87;;;13.00;99.90;;;;;;5075660;28;20218;-76
2023/10/23 08:25:04;;;;;;;5.97;4.57;;;13.10;99.90;;;;;;5080894;28;20168;-75
2023/10/23 08:27:30;;;;;;;7.70;5.40;;;13.10;99.90;;;;;;5083374;28;20216;-74
2023/10/23 08:29:56;;;;;;;5.40;4.90;;;13.20;99.90;;;;;;5077094;28;21119;-76
2023/10/23 08:32:22;;;;;;;5.93;5.03;;;13.20;99.90;;;;;;5074548;28;20179;-76
2023/10/23 08:34:47;;;;;;;9.17;6.10;;;13.10;99.90;;;;;;5077317;28;20672;-76
2023/10/23 08:37:14;;;;;;;9.57;7.87;;;13.10;99.90;;;;;;5073848;28;20199;-75
2023/10/23 08:39:40;;;;;;;7.23;6.33;;;13.00;99.90;;;;;;5062761;28;20269;-75
2023/10/23 08:42:05;;;;;;;6.90;6.20;;;13.00;99.90;;;;;;5076323;28;20595;-75
2023/10/23 08:44:31;;;;;;;6.20;5.60;;;13.00;99.90;;;;;;5077425;28;21396;-75
2023/10/23 08:46:58;;;;;;;7.73;5.77;;;13.00;99.90;;;;;;5078789;28;20626;-75
2023/10/23 08:49:24;;;;;;;5.80;5.20;;;13.00;99.90;;;;;;5061754;28;20190;-76
2023/10/23 08:51:50;;;;;;;7.33;5.70;;;13.10;99.90;;;;;;5078193;28;20582;-76
2023/10/23 08:54:18;;;;;;;7.70;4.93;;;13.20;99.90;;;;;;5085876;28;20714;-75
2023/10/23 08:56:46;;;;;;;7.50;5.50;;;13.20;99.90;;;;;;5083118;28;20625;-75
2023/10/23 08:59:14;;;;;;;5.87;5.20;;;13.20;99.90;;;;;;5063401;28;20587;-76
2023/10/23 09:01:40;;;;;;;10.17;5.93;;;13.20;99.90;;;;;;5078939;28;21022;-76
2023/10/23 09:04:07;;;;;;;5.93;5.23;;;13.20;99.90;;;;;;5059912;28;20586;-76
2023/10/23 09:06:33;;;;;;;7.33;6.47;;;13.30;99.90;;;;;;5082305;28;20619;-75
2023/10/23 09:08:59;;;;;;;8.63;6.00;;;13.30;99.90;;;;;;5063884;28;20606;-75
2023/10/23 09:11:46;;;;;;;8.50;5.10;;;13.40;99.90;;;;;;5044050;28;20681;-75
2023/10/23 09:14:28;;;;;;;5.40;4.30;;;13.50;99.90;;;;;;5075673;28;20598;-76
2023/10/23 09:16:55;;;;;;;5.27;4.60;;;13.60;99.90;;;;;;5074932;28;20602;-75
2023/10/23 09:19:26;;;;;;;5.93;3.87;;;13.60;99.90;;;;;;5083101;28;20608;-75
2023/10/23 09:21:58;;;;;;;4.30;3.90;;;13.60;99.90;;;;;;5059603;28;20598;-76
2023/10/23 09:24:24;;;;;;;4.70;3.80;;;13.60;99.90;;;;;;5078707;28;20573;-75
2023/10/23 09:26:50;;;;;;;4.33;3.93;;;13.60;99.90;;;;;;5082710;28;20618;-76
2023/10/23 09:29:21;;;;;;;4.37;3.77;;;13.60;99.90;;;;;;5078534;28;20599;-76
2023/10/23 09:31:47;;;;;;;4.87;4.17;;;13.60;99.90;;;;;;5083638;28;20611;-76
2023/10/23 09:34:13;;;;;;;4.63;2.20;;;13.70;99.90;;;;;;5076380;28;20587;-75
2023/10/23 09:36:39;;;;;;;9.00;3.20;;;13.80;99.90;;;;;;5082119;28;20609;-75
2023/10/23 09:39:06;;;;;;;4.33;3.93;;;13.90;99.90;;;;;;5078783;28;20203;-76
2023/10/23 09:41:32;;;;;;;3.40;3.00;;;13.90;99.90;;;;;;5081497;28;20606;-75
2023/10/23 09:44:00;;;;;;;4.00;3.60;;;14.00;99.90;;;;;;5064401;28;20574;-75
2023/10/23 09:46:28;;;;;;;4.20;3.23;;;14.10;99.90;;;;;;5084251;28;20721;-76
2023/10/23 09:48:59;;;;;;;4.40;3.50;;;14.20;99.90;;;;;;5082689;28;20613;-76
2023/10/23 09:51:29;;;;;;;5.57;3.13;;;14.20;99.90;;;;;;5075089;28;20581;-75
2023/10/23 09:53:59;;;;;;;4.57;3.37;;;14.30;99.90;;;;;;5093017;28;20624;-75
2023/10/23 09:56:30;;;;;;;6.07;3.20;;;14.30;99.90;;;;;;5093331;28;21101;-76
2023/10/23 09:59:00;;;;;;;5.03;3.80;;;14.30;99.90;;;;;;5065367;28;21196;-76
2023/10/23 10:01:36;;;;;;;4.90;4.20;;;14.40;99.90;;;;;;5072393;28;21836;-76
2023/10/23 10:04:14;;;;;;;6.30;3.40;;;14.40;99.90;;;;;;5089935;28;21188;-76
2023/10/23 10:06:47;;;;;;;4.53;3.00;;;14.40;99.90;;;;;;5077290;28;20700;-76
2023/10/23 10:09:14;;;;;;;5.30;3.90;;;14.50;99.90;;;;;;5066697;28;20593;-76
2023/10/23 10:11:42;;;;;;;4.20;3.60;;;14.50;99.90;;;;;;5092979;28;20640;-76
2023/10/23 10:14:09;;;;;;;4.23;3.47;;;14.60;99.90;;;;;;5081697;28;21223;-76
2023/10/23 10:16:36;;;;;;;8.30;3.60;;;14.70;99.90;;;;;;5072608;28;20656;-76
2023/10/23 10:19:04;;;;;;;3.80;3.17;;;14.80;99.90;;;;;;5056835;28;20670;-76
2023/10/23 10:21:53;;;;;;;5.00;3.07;;;14.80;99.90;;;;;;5057065;28;21142;-75
2023/10/23 10:24:20;;;;;;;4.47;2.80;;;14.90;99.90;;;;;;5028199;28;20955;-75
2023/10/23 10:26:48;;;;;;;5.97;2.87;;;15.00;99.90;;;;;;5089916;28;20672;-76
2023/10/23 10:29:14;;;;;;;4.70;2.80;;;15.10;99.90;;;;;;5084593;28;20994;-75
2023/10/23 10:32:05;;;;;;;3.23;2.10;;;15.20;99.90;;;;;;5071307;28;20607;-75
2023/10/23 10:34:33;;;;;;;3.40;2.13;;;15.40;99.90;;;;;;5061903;28;20531;-76
2023/10/23 10:36:59;;;;;;;2.73;2.17;;;15.60;99.90;;;;;;5089208;28;20636;-76
2023/10/23 10:39:48;;;;;;;2.97;2.10;;;15.70;99.90;;;;;;5072393;28;21135;-76
2023/10/23 10:42:24;;;;;;;2.63;1.83;;;15.90;99.90;;;;;;5080578;28;20618;-76
2023/10/23 10:44:53;;;;;;;5.07;2.13;;;16.00;99.90;;;;;;5080528;28;20609;-76
2023/10/23 10:47:19;;;;;;;4.17;2.23;;;16.10;99.90;;;;;;5092424;28;20659;-76
2023/10/23 10:49:50;;;;;;;3.60;1.77;;;16.10;99.90;;;;;;5081906;28;20635;-76
2023/10/23 10:52:30;;;;;;;3.60;2.03;;;16.20;99.90;;;;;;5083983;28;20580;-75
2023/10/23 10:55:08;;;;;;;2.67;1.30;;;16.30;99.90;;;;;;5092024;28;20612;-76
2023/10/23 10:57:36;;;;;;;6.53;3.53;;;16.40;99.90;;;;;;5091861;28;20621;-75
2023/10/23 11:00:03;;;;;;;6.33;1.40;;;16.50;99.90;;;;;;5074014;28;20581;-76
2023/10/23 11:02:29;;;;;;;5.23;1.97;;;16.50;99.90;;;;;;5065557;28;20606;-76
2023/10/23 11:04:54;;;;;;;2.90;1.50;;;16.50;99.90;;;;;;5070277;28;21210;-76
2023/10/23 11:07:22;;;;;;;2.07;1.27;;;16.60;99.90;;;;;;5087993;28;20211;-76
2023/10/23 11:09:49;;;;;;;2.83;1.40;;;16.60;99.90;;;;;;5079358;28;20178;-76
2023/10/23 11:12:18;;;;;;;1.97;1.20;;;16.50;99.90;;;;;;5091881;28;20581;-76
2023/10/23 11:14:44;;;;;;;2.60;1.50;;;16.60;99.90;;;;;;5076238;28;20971;-76
2023/10/23 11:17:10;;;;;;;2.27;1.30;;;16.70;99.90;;;;;;5067375;28;20673;-76
2023/10/23 11:19:35;;;;;;;2.27;1.30;;;16.70;99.90;;;;;;5090318;28;20590;-76
2023/10/23 11:22:15;;;;;;;3.10;1.27;;;16.60;99.90;;;;;;5080932;28;20176;-76
2023/10/23 11:24:41;;;;;;;2.40;1.33;;;16.60;99.90;;;;;;5058447;28;20217;-75
2023/10/23 11:27:07;;;;;;;5.10;1.47;;;16.80;99.90;;;;;;5055240;28;20646;-75
2023/10/23 11:29:44;;;;;;;3.13;1.50;;;16.90;99.90;;;;;;5091699;28;20712;-75
2023/10/23 11:32:15;;;;;;;3.73;1.13;;;16.90;99.90;;;;;;5091089;28;20585;-75
2023/10/23 11:34:41;;;;;;;3.87;1.40;;;16.90;99.90;;;;;;5071433;28;20673;-76
2023/10/23 11:37:10;;;;;;;3.47;1.60;;;16.90;99.90;;;;;;5076178;28;20610;-76
2023/10/23 11:39:38;;;;;;;2.80;1.40;;;17.00;99.90;;;;;;5073316;28;21081;-76
2023/10/23 11:42:04;;;;;;;3.57;1.20;;;17.00;99.90;;;;;;5074113;28;20664;-76
2023/10/23 11:44:32;;;;;;;2.70;1.50;;;16.90;99.90;;;;;;5091160;28;21295;-76
2023/10/23 11:46:58;;;;;;;2.23;1.40;;;16.90;99.90;;;;;;5090982;28;20759;-76
2023/10/23 11:49:24;;;;;;;5.13;1.63;;;16.90;99.90;;;;;;5091370;28;20633;-76
2023/10/23 11:51:55;;;;;;;5.40;1.40;;;16.90;99.90;;;;;;5079190;28;21127;-76
2023/10/23 11:54:24;;;;;;;6.70;1.50;;;16.90;99.90;;;;;;5074961;28;20580;-76
2023/10/23 11:56:50;;;;;;;4.17;2.70;;;17.00;99.90;;;;;;5090926;28;21028;-76
2023/10/23 11:59:21;;;;;;;5.50;1.30;;;17.00;99.90;;;;;;5074850;28;20568;-77
2023/10/23 12:01:47;;;;;;;3.50;1.10;;;17.00;99.90;;;;;;5091095;28;20581;-76
2023/10/23 12:04:13;;;;;;;4.63;1.47;;;17.00;99.90;;;;;;5090672;28;20592;-76
2023/10/23 12:06:40;;;;;;;2.93;1.30;;;16.90;99.90;;;;;;5090898;28;20601;-76
2023/10/23 12:09:06;;;;;;;3.73;1.10;;;16.90;99.90;;;;;;5090981;28;20589;-76
2023/10/23 12:11:33;;;;;;;2.67;1.10;;;16.80;99.90;;;;;;5091175;28;20596;-76
2023/10/23 12:14:01;;;;;;;3.80;0.93;;;16.80;99.90;;;;;;5073831;28;20985;-77
2023/10/23 12:16:27;;;;;;;2.50;0.90;;;16.80;99.90;;;;;;5083575;28;20610;-76
2023/10/23 12:18:53;;;;;;;1.90;1.00;;;16.80;99.90;;;;;;5073354;28;20601;-76
2023/10/23 12:21:19;;;;;;;2.40;1.10;;;16.80;99.90;;;;;;5079309;28;20588;-76
2023/10/23 12:23:45;;;;;;;2.87;1.30;;;16.80;99.90;;;;;;5072700;28;20235;-76
2023/10/23 12:26:11;;;;;;;2.67;1.10;;;16.80;99.90;;;;;;5088569;28;20656;-75
2023/10/23 12:28:40;;;;;;;2.67;1.30;;;16.80;99.90;;;;;;5075615;28;20661;-75
2023/10/23 12:31:05;;;;;;;3.80;1.03;;;16.90;99.90;;;;;;5081077;28;20670;-76
2023/10/23 12:33:32;;;;;;;2.63;0.90;;;17.00;99.90;;;;;;5075044;28;20656;-76
2023/10/23 12:36:03;;;;;;;2.87;1.00;;;17.10;99.90;;;;;;5070219;28;20249;-76
2023/10/23 12:38:30;;;;;;;1.87;0.90;;;17.10;99.90;;;;;;5035746;28;20693;-76
2023/10/23 12:40:58;;;;;;;2.10;0.97;;;17.20;99.90;;;;;;5070368;28;20633;-76
2023/10/23 12:43:23;;;;;;;2.67;0.93;;;17.30;99.90;;;;;;5047819;28;20589;-75
2023/10/23 12:45:49;;;;;;;3.77;1.33;;;17.30;99.90;;;;;;5074487;28;20622;-75
2023/10/23 12:48:15;;;;;;;5.63;1.17;;;17.40;99.90;;;;;;5052327;28;20250;-75